sensor_id;sensor_type;location;lat;lon;timestamp;P1;durP1;ratioP1;P2;durP2;ratioP2
68438;SDS011;55421;51.600;5.718;2023-12-29T00:00:54;6.00;;;2.00;;
68438;SDS011;55421;51.600;5.718;2023-12-29T00:03:38;6.90;;;1.60;;
68438;SDS011;55421;51.600;5.718;2023-12-29T00:06:05;11.20;;;1.70;;
68438;SDS011;55421;51.600;5.718;2023-12-29T00:08:31;4.70;;;1.30;;
68438;SDS011;55421;51.600;5.718;2023-12-29T00:10:59;4.30;;;1.40;;
68438;SDS011;55421;51.600;5.718;2023-12-29T00:13:25;6.90;;;1.60;;
68438;SDS011;55421;51.600;5.718;2023-12-29T00:15:53;5.40;;;1.70;;
68438;SDS011;55421;51.600;5.718;2023-12-29T00:18:19;6.40;;;1.30;;
68438;SDS011;55421;51.600;5.718;2023-12-29T00:20:47;4.40;;;1.60;;
68438;SDS011;55421;51.600;5.718;2023-12-29T00:23:14;2.00;;;1.00;;
68438;SDS011;55421;51.600;5.718;2023-12-29T00:25:40;6.00;;;1.40;;
68438;SDS011;55421;51.600;5.718;2023-12-29T00:28:07;7.60;;;1.80;;
68438;SDS011;55421;51.600;5.718;2023-12-29T00:30:38;4.30;;;1.10;;
68438;SDS011;55421;51.600;5.718;2023-12-29T00:33:05;5.50;;;1.50;;
68438;SDS011;55421;51.600;5.718;2023-12-29T00:35:32;7.80;;;1.20;;
68438;SDS011;55421;51.600;5.718;2023-12-29T00:37:59;9.60;;;1.80;;
68438;SDS011;55421;51.600;5.718;2023-12-29T00:40:26;6.80;;;1.80;;
68438;SDS011;55421;51.600;5.718;2023-12-29T00:42:52;11.60;;;1.40;;
68438;SDS011;55421;51.600;5.718;2023-12-29T00:45:19;5.80;;;1.20;;
68438;SDS011;55421;51.600;5.718;2023-12-29T00:47:47;5.20;;;1.40;;
68438;SDS011;55421;51.600;5.718;2023-12-29T00:50:14;9.50;;;1.80;;
68438;SDS011;55421;51.600;5.718;2023-12-29T00:52:41;7.10;;;1.30;;
68438;SDS011;55421;51.600;5.718;2023-12-29T00:55:07;8.40;;;2.20;;
68438;SDS011;55421;51.600;5.718;2023-12-29T00:57:34;9.50;;;1.40;;
68438;SDS011;55421;51.600;5.718;2023-12-29T01:00:00;4.40;;;1.30;;
68438;SDS011;55421;51.600;5.718;2023-12-29T01:02:27;6.20;;;1.40;;
68438;SDS011;55421;51.600;5.718;2023-12-29T01:04:54;7.40;;;1.50;;
68438;SDS011;55421;51.600;5.718;2023-12-29T01:07:20;5.80;;;1.90;;
68438;SDS011;55421;51.600;5.718;2023-12-29T01:09:47;4.50;;;1.60;;
68438;SDS011;55421;51.600;5.718;2023-12-29T01:12:13;3.80;;;1.60;;
68438;SDS011;55421;51.600;5.718;2023-12-29T01:14:41;11.80;;;2.30;;
68438;SDS011;55421;51.600;5.718;2023-12-29T01:17:07;5.50;;;1.70;;
68438;SDS011;55421;51.600;5.718;2023-12-29T01:19:34;10.30;;;1.60;;
68438;SDS011;55421;51.600;5.718;2023-12-29T01:22:00;7.80;;;1.90;;
68438;SDS011;55421;51.600;5.718;2023-12-29T01:24:27;8.10;;;1.70;;
68438;SDS011;55421;51.600;5.718;2023-12-29T01:26:53;5.40;;;1.40;;
68438;SDS011;55421;51.600;5.718;2023-12-29T01:29:20;3.70;;;1.70;;
68438;SDS011;55421;51.600;5.718;2023-12-29T01:31:46;7.40;;;1.20;;
68438;SDS011;55421;51.600;5.718;2023-12-29T01:34:14;3.00;;;1.20;;
68438;SDS011;55421;51.600;5.718;2023-12-29T01:36:40;7.30;;;2.10;;
68438;SDS011;55421;51.600;5.718;2023-12-29T01:39:07;1.70;;;1.20;;
68438;SDS011;55421;51.600;5.718;2023-12-29T01:41:33;6.30;;;1.40;;
68438;SDS011;55421;51.600;5.718;2023-12-29T01:46:29;6.80;;;1.90;;
68438;SDS011;55421;51.600;5.718;2023-12-29T01:48:58;4.30;;;1.40;;
68438;SDS011;55421;51.600;5.718;2023-12-29T01:51:26;8.70;;;2.30;;
68438;SDS011;55421;51.600;5.718;2023-12-29T01:53:54;9.20;;;2.10;;
68438;SDS011;55421;51.600;5.718;2023-12-29T01:56:23;4.30;;;1.60;;
68438;SDS011;55421;51.600;5.718;2023-12-29T01:58:51;5.40;;;1.50;;
68438;SDS011;55421;51.600;5.718;2023-12-29T02:01:18;5.20;;;1.30;;
68438;SDS011;55421;51.600;5.718;2023-12-29T02:03:45;7.50;;;1.80;;
68438;SDS011;55421;51.600;5.718;2023-12-29T02:06:12;5.00;;;1.40;;
68438;SDS011;55421;51.600;5.718;2023-12-29T02:08:42;5.10;;;1.60;;
68438;SDS011;55421;51.600;5.718;2023-12-29T02:11:09;6.90;;;1.20;;
68438;SDS011;55421;51.600;5.718;2023-12-29T02:13:36;6.90;;;1.60;;
68438;SDS011;55421;51.600;5.718;2023-12-29T02:16:08;5.80;;;1.70;;
68438;SDS011;55421;51.600;5.718;2023-12-29T02:18:39;6.50;;;1.30;;
68438;SDS011;55421;51.600;5.718;2023-12-29T02:21:10;11.40;;;1.90;;
68438;SDS011;55421;51.600;5.718;2023-12-29T02:23:37;10.90;;;1.80;;
68438;SDS011;55421;51.600;5.718;2023-12-29T02:26:09;6.30;;;1.60;;
68438;SDS011;55421;51.600;5.718;2023-12-29T02:28:44;4.30;;;1.50;;
68438;SDS011;55421;51.600;5.718;2023-12-29T02:31:23;7.80;;;1.90;;
68438;SDS011;55421;51.600;5.718;2023-12-29T02:33:53;6.90;;;1.50;;
68438;SDS011;55421;51.600;5.718;2023-12-29T02:36:23;8.90;;;1.40;;
68438;SDS011;55421;51.600;5.718;2023-12-29T02:38:50;7.40;;;1.90;;
68438;SDS011;55421;51.600;5.718;2023-12-29T02:41:17;4.90;;;1.50;;
68438;SDS011;55421;51.600;5.718;2023-12-29T02:43:44;9.30;;;1.70;;
68438;SDS011;55421;51.600;5.718;2023-12-29T02:46:10;8.80;;;2.10;;
68438;SDS011;55421;51.600;5.718;2023-12-29T02:48:37;6.00;;;1.50;;
68438;SDS011;55421;51.600;5.718;2023-12-29T02:51:03;8.70;;;1.60;;
68438;SDS011;55421;51.600;5.718;2023-12-29T02:53:30;6.40;;;1.30;;
68438;SDS011;55421;51.600;5.718;2023-12-29T02:55:56;5.60;;;1.30;;
68438;SDS011;55421;51.600;5.718;2023-12-29T02:58:23;6.10;;;1.40;;
68438;SDS011;55421;51.600;5.718;2023-12-29T03:00:49;8.00;;;1.60;;
68438;SDS011;55421;51.600;5.718;2023-12-29T03:03:16;6.10;;;1.20;;
68438;SDS011;55421;51.600;5.718;2023-12-29T03:05:42;10.00;;;2.80;;
68438;SDS011;55421;51.600;5.718;2023-12-29T03:08:08;6.30;;;1.60;;
68438;SDS011;55421;51.600;5.718;2023-12-29T03:10:35;6.90;;;1.50;;
68438;SDS011;55421;51.600;5.718;2023-12-29T03:13:01;5.40;;;1.40;;
68438;SDS011;55421;51.600;5.718;2023-12-29T03:15:30;12.90;;;2.00;;
68438;SDS011;55421;51.600;5.718;2023-12-29T03:17:56;4.60;;;1.20;;
68438;SDS011;55421;51.600;5.718;2023-12-29T03:20:23;5.40;;;1.60;;
68438;SDS011;55421;51.600;5.718;2023-12-29T03:22:49;5.60;;;1.30;;
68438;SDS011;55421;51.600;5.718;2023-12-29T03:25:16;7.60;;;1.50;;
68438;SDS011;55421;51.600;5.718;2023-12-29T03:27:42;6.40;;;1.40;;
68438;SDS011;55421;51.600;5.718;2023-12-29T03:30:09;5.60;;;1.20;;
68438;SDS011;55421;51.600;5.718;2023-12-29T03:32:37;4.80;;;1.40;;
68438;SDS011;55421;51.600;5.718;2023-12-29T03:35:04;7.40;;;1.80;;
68438;SDS011;55421;51.600;5.718;2023-12-29T03:37:31;5.60;;;1.60;;
68438;SDS011;55421;51.600;5.718;2023-12-29T03:39:57;5.20;;;1.40;;
68438;SDS011;55421;51.600;5.718;2023-12-29T03:42:24;4.80;;;1.60;;
68438;SDS011;55421;51.600;5.718;2023-12-29T03:44:50;8.80;;;1.50;;
68438;SDS011;55421;51.600;5.718;2023-12-29T03:47:17;6.30;;;1.70;;
68438;SDS011;55421;51.600;5.718;2023-12-29T03:49:43;7.10;;;1.60;;
68438;SDS011;55421;51.600;5.718;2023-12-29T03:52:10;10.20;;;2.00;;
68438;SDS011;55421;51.600;5.718;2023-12-29T03:54:36;7.60;;;1.40;;
68438;SDS011;55421;51.600;5.718;2023-12-29T03:57:03;5.80;;;1.40;;
68438;SDS011;55421;51.600;5.718;2023-12-29T03:59:30;7.80;;;2.40;;
68438;SDS011;55421;51.600;5.718;2023-12-29T04:01:56;8.70;;;1.50;;
68438;SDS011;55421;51.600;5.718;2023-12-29T04:04:22;4.90;;;1.30;;
68438;SDS011;55421;51.600;5.718;2023-12-29T04:06:49;5.60;;;2.00;;
68438;SDS011;55421;51.600;5.718;2023-12-29T04:09:16;6.40;;;1.40;;
68438;SDS011;55421;51.600;5.718;2023-12-29T04:11:42;6.00;;;1.20;;
68438;SDS011;55421;51.600;5.718;2023-12-29T04:14:09;6.50;;;1.60;;
68438;SDS011;55421;51.600;5.718;2023-12-29T04:16:39;6.70;;;1.40;;
68438;SDS011;55421;51.600;5.718;2023-12-29T04:19:05;6.70;;;1.50;;
68438;SDS011;55421;51.600;5.718;2023-12-29T04:21:32;5.50;;;1.30;;
68438;SDS011;55421;51.600;5.718;2023-12-29T04:23:58;4.60;;;1.70;;
68438;SDS011;55421;51.600;5.718;2023-12-29T04:26:24;7.30;;;1.70;;
68438;SDS011;55421;51.600;5.718;2023-12-29T04:28:51;9.90;;;1.70;;
68438;SDS011;55421;51.600;5.718;2023-12-29T04:31:17;11.40;;;2.30;;
68438;SDS011;55421;51.600;5.718;2023-12-29T04:33:44;7.60;;;1.60;;
68438;SDS011;55421;51.600;5.718;2023-12-29T04:36:12;7.40;;;1.90;;
68438;SDS011;55421;51.600;5.718;2023-12-29T04:38:39;11.80;;;2.30;;
68438;SDS011;55421;51.600;5.718;2023-12-29T04:41:05;6.80;;;1.60;;
68438;SDS011;55421;51.600;5.718;2023-12-29T04:43:32;9.00;;;1.90;;
68438;SDS011;55421;51.600;5.718;2023-12-29T04:45:59;8.80;;;1.50;;
68438;SDS011;55421;51.600;5.718;2023-12-29T04:48:26;6.50;;;1.30;;
68438;SDS011;55421;51.600;5.718;2023-12-29T04:50:53;7.00;;;1.70;;
68438;SDS011;55421;51.600;5.718;2023-12-29T04:53:19;9.30;;;1.70;;
68438;SDS011;55421;51.600;5.718;2023-12-29T04:55:46;14.60;;;1.70;;
68438;SDS011;55421;51.600;5.718;2023-12-29T04:58:12;7.80;;;1.90;;
68438;SDS011;55421;51.600;5.718;2023-12-29T05:00:39;6.20;;;1.90;;
68438;SDS011;55421;51.600;5.718;2023-12-29T05:03:05;6.40;;;1.70;;
68438;SDS011;55421;51.600;5.718;2023-12-29T05:05:32;9.20;;;1.70;;
68438;SDS011;55421;51.600;5.718;2023-12-29T05:07:59;3.90;;;1.40;;
68438;SDS011;55421;51.600;5.718;2023-12-29T05:10:25;6.80;;;1.70;;
68438;SDS011;55421;51.600;5.718;2023-12-29T05:12:51;3.70;;;1.50;;
68438;SDS011;55421;51.600;5.718;2023-12-29T05:15:18;7.70;;;1.40;;
68438;SDS011;55421;51.600;5.718;2023-12-29T05:17:45;10.30;;;2.00;;
68438;SDS011;55421;51.600;5.718;2023-12-29T05:20:11;8.90;;;1.70;;
68438;SDS011;55421;51.600;5.718;2023-12-29T05:22:39;8.40;;;1.80;;
68438;SDS011;55421;51.600;5.718;2023-12-29T05:25:06;5.80;;;1.80;;
68438;SDS011;55421;51.600;5.718;2023-12-29T05:27:33;6.20;;;1.70;;
68438;SDS011;55421;51.600;5.718;2023-12-29T05:29:59;5.90;;;1.50;;
68438;SDS011;55421;51.600;5.718;2023-12-29T05:32:26;8.50;;;1.60;;
68438;SDS011;55421;51.600;5.718;2023-12-29T05:34:52;9.00;;;1.50;;
68438;SDS011;55421;51.600;5.718;2023-12-29T05:37:19;8.70;;;1.80;;
68438;SDS011;55421;51.600;5.718;2023-12-29T05:39:46;7.40;;;1.80;;
68438;SDS011;55421;51.600;5.718;2023-12-29T05:42:12;10.70;;;2.10;;
68438;SDS011;55421;51.600;5.718;2023-12-29T05:44:39;7.20;;;1.80;;
68438;SDS011;55421;51.600;5.718;2023-12-29T05:47:05;6.30;;;1.50;;
68438;SDS011;55421;51.600;5.718;2023-12-29T05:49:32;10.60;;;2.00;;
68438;SDS011;55421;51.600;5.718;2023-12-29T05:52:05;6.50;;;1.90;;
68438;SDS011;55421;51.600;5.718;2023-12-29T05:54:33;6.80;;;1.30;;
68438;SDS011;55421;51.600;5.718;2023-12-29T05:57:00;9.70;;;1.90;;
68438;SDS011;55421;51.600;5.718;2023-12-29T05:59:27;5.40;;;1.80;;
68438;SDS011;55421;51.600;5.718;2023-12-29T06:01:53;8.20;;;1.90;;
68438;SDS011;55421;51.600;5.718;2023-12-29T06:04:21;7.60;;;1.40;;
68438;SDS011;55421;51.600;5.718;2023-12-29T06:06:47;11.90;;;1.80;;
68438;SDS011;55421;51.600;5.718;2023-12-29T06:09:14;8.70;;;1.50;;
68438;SDS011;55421;51.600;5.718;2023-12-29T06:11:40;9.30;;;3.10;;
68438;SDS011;55421;51.600;5.718;2023-12-29T06:14:07;8.50;;;1.50;;
68438;SDS011;55421;51.600;5.718;2023-12-29T06:16:33;4.80;;;1.30;;
68438;SDS011;55421;51.600;5.718;2023-12-29T06:19:00;8.70;;;1.40;;
68438;SDS011;55421;51.600;5.718;2023-12-29T06:21:27;8.10;;;2.00;;
68438;SDS011;55421;51.600;5.718;2023-12-29T06:23:53;5.30;;;1.30;;
68438;SDS011;55421;51.600;5.718;2023-12-29T06:26:20;9.70;;;1.70;;
68438;SDS011;55421;51.600;5.718;2023-12-29T06:28:47;6.30;;;1.70;;
68438;SDS011;55421;51.600;5.718;2023-12-29T06:31:14;7.70;;;1.70;;
68438;SDS011;55421;51.600;5.718;2023-12-29T06:33:43;9.20;;;1.40;;
68438;SDS011;55421;51.600;5.718;2023-12-29T06:36:11;9.20;;;1.80;;
68438;SDS011;55421;51.600;5.718;2023-12-29T06:38:38;11.60;;;2.30;;
68438;SDS011;55421;51.600;5.718;2023-12-29T06:41:04;8.80;;;1.50;;
68438;SDS011;55421;51.600;5.718;2023-12-29T06:43:31;8.80;;;1.80;;
68438;SDS011;55421;51.600;5.718;2023-12-29T06:45:57;12.30;;;1.80;;
68438;SDS011;55421;51.600;5.718;2023-12-29T06:48:24;5.20;;;1.40;;
68438;SDS011;55421;51.600;5.718;2023-12-29T06:50:50;8.00;;;1.60;;
68438;SDS011;55421;51.600;5.718;2023-12-29T06:53:17;8.10;;;1.50;;
68438;SDS011;55421;51.600;5.718;2023-12-29T06:55:43;6.80;;;1.40;;
68438;SDS011;55421;51.600;5.718;2023-12-29T06:58:10;11.90;;;1.90;;
68438;SDS011;55421;51.600;5.718;2023-12-29T07:00:37;7.70;;;1.40;;
68438;SDS011;55421;51.600;5.718;2023-12-29T07:03:04;5.50;;;1.00;;
68438;SDS011;55421;51.600;5.718;2023-12-29T07:05:31;6.80;;;1.30;;
68438;SDS011;55421;51.600;5.718;2023-12-29T07:07:58;7.20;;;1.40;;
68438;SDS011;55421;51.600;5.718;2023-12-29T07:10:25;5.10;;;1.40;;
68438;SDS011;55421;51.600;5.718;2023-12-29T07:12:51;3.70;;;1.30;;
68438;SDS011;55421;51.600;5.718;2023-12-29T07:15:18;4.80;;;1.40;;
68438;SDS011;55421;51.600;5.718;2023-12-29T07:17:44;7.60;;;1.50;;
68438;SDS011;55421;51.600;5.718;2023-12-29T07:20:11;4.50;;;2.10;;
68438;SDS011;55421;51.600;5.718;2023-12-29T07:22:38;7.60;;;2.00;;
68438;SDS011;55421;51.600;5.718;2023-12-29T07:25:05;4.10;;;1.50;;
68438;SDS011;55421;51.600;5.718;2023-12-29T07:27:31;9.30;;;2.00;;
68438;SDS011;55421;51.600;5.718;2023-12-29T07:29:58;9.80;;;1.40;;
68438;SDS011;55421;51.600;5.718;2023-12-29T07:32:25;4.20;;;1.40;;
68438;SDS011;55421;51.600;5.718;2023-12-29T07:34:51;10.40;;;2.00;;
68438;SDS011;55421;51.600;5.718;2023-12-29T07:37:19;5.50;;;1.40;;
68438;SDS011;55421;51.600;5.718;2023-12-29T07:39:45;6.80;;;1.60;;
68438;SDS011;55421;51.600;5.718;2023-12-29T07:42:13;4.90;;;1.10;;
68438;SDS011;55421;51.600;5.718;2023-12-29T07:44:42;7.50;;;1.40;;
68438;SDS011;55421;51.600;5.718;2023-12-29T07:47:09;6.90;;;1.30;;
68438;SDS011;55421;51.600;5.718;2023-12-29T07:49:37;7.70;;;1.70;;
68438;SDS011;55421;51.600;5.718;2023-12-29T07:52:04;4.40;;;1.30;;
68438;SDS011;55421;51.600;5.718;2023-12-29T07:54:31;4.70;;;1.30;;
68438;SDS011;55421;51.600;5.718;2023-12-29T07:56:57;4.20;;;1.10;;
68438;SDS011;55421;51.600;5.718;2023-12-29T07:59:24;5.70;;;1.20;;
68438;SDS011;55421;51.600;5.718;2023-12-29T08:01:51;4.70;;;1.50;;
68438;SDS011;55421;51.600;5.718;2023-12-29T08:04:17;6.50;;;1.80;;
68438;SDS011;55421;51.600;5.718;2023-12-29T08:06:44;3.60;;;1.20;;
68438;SDS011;55421;51.600;5.718;2023-12-29T08:09:11;3.60;;;0.90;;
68438;SDS011;55421;51.600;5.718;2023-12-29T08:11:37;5.50;;;1.00;;
68438;SDS011;55421;51.600;5.718;2023-12-29T08:14:04;3.40;;;1.00;;
68438;SDS011;55421;51.600;5.718;2023-12-29T08:16:31;2.80;;;0.90;;
68438;SDS011;55421;51.600;5.718;2023-12-29T08:18:58;7.70;;;1.40;;
68438;SDS011;55421;51.600;5.718;2023-12-29T08:21:24;3.10;;;0.90;;
68438;SDS011;55421;51.600;5.718;2023-12-29T08:23:51;2.40;;;1.00;;
68438;SDS011;55421;51.600;5.718;2023-12-29T08:26:17;5.00;;;1.00;;
68438;SDS011;55421;51.600;5.718;2023-12-29T08:28:44;3.10;;;1.20;;
68438;SDS011;55421;51.600;5.718;2023-12-29T08:31:11;2.20;;;0.90;;
68438;SDS011;55421;51.600;5.718;2023-12-29T08:33:38;3.80;;;1.10;;
68438;SDS011;55421;51.600;5.718;2023-12-29T08:36:05;5.70;;;0.90;;
68438;SDS011;55421;51.600;5.718;2023-12-29T08:38:32;3.90;;;1.30;;
68438;SDS011;55421;51.600;5.718;2023-12-29T08:40:59;1.90;;;0.90;;
68438;SDS011;55421;51.600;5.718;2023-12-29T08:43:26;3.10;;;0.80;;
68438;SDS011;55421;51.600;5.718;2023-12-29T08:45:53;6.20;;;1.40;;
68438;SDS011;55421;51.600;5.718;2023-12-29T08:48:20;2.50;;;1.00;;
68438;SDS011;55421;51.600;5.718;2023-12-29T08:50:46;2.40;;;1.00;;
68438;SDS011;55421;51.600;5.718;2023-12-29T08:53:13;2.30;;;0.70;;
68438;SDS011;55421;51.600;5.718;2023-12-29T08:55:40;2.40;;;0.90;;
68438;SDS011;55421;51.600;5.718;2023-12-29T08:58:06;4.30;;;0.90;;
68438;SDS011;55421;51.600;5.718;2023-12-29T09:00:33;1.00;;;0.70;;
68438;SDS011;55421;51.600;5.718;2023-12-29T09:03:00;4.70;;;0.90;;
68438;SDS011;55421;51.600;5.718;2023-12-29T09:05:27;4.70;;;1.00;;
68438;SDS011;55421;51.600;5.718;2023-12-29T09:07:53;1.70;;;0.80;;
68438;SDS011;55421;51.600;5.718;2023-12-29T09:10:20;2.20;;;1.10;;
68438;SDS011;55421;51.600;5.718;2023-12-29T09:12:48;2.40;;;0.70;;
68438;SDS011;55421;51.600;5.718;2023-12-29T09:15:16;2.50;;;0.70;;
68438;SDS011;55421;51.600;5.718;2023-12-29T09:17:43;2.30;;;0.90;;
68438;SDS011;55421;51.600;5.718;2023-12-29T09:20:10;1.20;;;0.60;;
68438;SDS011;55421;51.600;5.718;2023-12-29T09:22:36;2.40;;;0.70;;
68438;SDS011;55421;51.600;5.718;2023-12-29T09:25:04;3.70;;;0.90;;
68438;SDS011;55421;51.600;5.718;2023-12-29T09:27:31;3.10;;;0.90;;
68438;SDS011;55421;51.600;5.718;2023-12-29T09:29:57;1.50;;;0.70;;
68438;SDS011;55421;51.600;5.718;2023-12-29T09:32:24;1.30;;;0.60;;
68438;SDS011;55421;51.600;5.718;2023-12-29T09:34:50;2.10;;;0.70;;
68438;SDS011;55421;51.600;5.718;2023-12-29T09:37:17;1.70;;;0.60;;
68438;SDS011;55421;51.600;5.718;2023-12-29T09:39:44;2.00;;;0.50;;
68438;SDS011;55421;51.600;5.718;2023-12-29T09:42:17;2.30;;;0.60;;
68438;SDS011;55421;51.600;5.718;2023-12-29T09:44:51;1.80;;;0.60;;
68438;SDS011;55421;51.600;5.718;2023-12-29T09:47:25;1.70;;;0.70;;
68438;SDS011;55421;51.600;5.718;2023-12-29T09:49:53;2.60;;;0.80;;
68438;SDS011;55421;51.600;5.718;2023-12-29T09:52:21;1.40;;;0.80;;
68438;SDS011;55421;51.600;5.718;2023-12-29T09:54:51;3.80;;;0.60;;
68438;SDS011;55421;51.600;5.718;2023-12-29T09:57:18;1.90;;;0.70;;
68438;SDS011;55421;51.600;5.718;2023-12-29T09:59:48;3.00;;;0.80;;
68438;SDS011;55421;51.600;5.718;2023-12-29T10:02:18;0.90;;;0.50;;
68438;SDS011;55421;51.600;5.718;2023-12-29T10:04:46;1.20;;;0.50;;
68438;SDS011;55421;51.600;5.718;2023-12-29T10:07:26;0.90;;;0.60;;
68438;SDS011;55421;51.600;5.718;2023-12-29T10:09:56;0.60;;;0.50;;
68438;SDS011;55421;51.600;5.718;2023-12-29T10:12:25;1.30;;;0.60;;
68438;SDS011;55421;51.600;5.718;2023-12-29T10:17:51;1.70;;;0.80;;
68438;SDS011;55421;51.600;5.718;2023-12-29T10:23:20;1.60;;;0.70;;
68438;SDS011;55421;51.600;5.718;2023-12-29T10:26:07;2.20;;;1.00;;
68438;SDS011;55421;51.600;5.718;2023-12-29T10:28:37;0.60;;;0.60;;
68438;SDS011;55421;51.600;5.718;2023-12-29T10:31:04;1.70;;;0.80;;
68438;SDS011;55421;51.600;5.718;2023-12-29T10:33:31;2.10;;;0.60;;
68438;SDS011;55421;51.600;5.718;2023-12-29T10:36:00;0.50;;;0.50;;
68438;SDS011;55421;51.600;5.718;2023-12-29T10:38:33;0.60;;;0.50;;
68438;SDS011;55421;51.600;5.718;2023-12-29T10:41:16;1.90;;;0.60;;
68438;SDS011;55421;51.600;5.718;2023-12-29T10:43:46;2.00;;;0.60;;
68438;SDS011;55421;51.600;5.718;2023-12-29T10:46:18;0.60;;;0.50;;
68438;SDS011;55421;51.600;5.718;2023-12-29T10:48:46;1.60;;;0.80;;
68438;SDS011;55421;51.600;5.718;2023-12-29T10:51:12;0.70;;;0.50;;
68438;SDS011;55421;51.600;5.718;2023-12-29T10:53:39;2.30;;;0.80;;
68438;SDS011;55421;51.600;5.718;2023-12-29T10:56:16;1.20;;;0.70;;
68438;SDS011;55421;51.600;5.718;2023-12-29T10:58:57;1.00;;;0.70;;
68438;SDS011;55421;51.600;5.718;2023-12-29T11:01:26;3.30;;;1.20;;
68438;SDS011;55421;51.600;5.718;2023-12-29T11:03:59;2.20;;;0.90;;
68438;SDS011;55421;51.600;5.718;2023-12-29T11:06:27;2.50;;;0.70;;
68438;SDS011;55421;51.600;5.718;2023-12-29T11:08:57;2.30;;;0.80;;
68438;SDS011;55421;51.600;5.718;2023-12-29T11:11:24;1.40;;;1.00;;
68438;SDS011;55421;51.600;5.718;2023-12-29T11:13:53;2.30;;;0.80;;
68438;SDS011;55421;51.600;5.718;2023-12-29T11:16:21;1.80;;;1.20;;
68438;SDS011;55421;51.600;5.718;2023-12-29T11:18:49;3.00;;;1.00;;
68438;SDS011;55421;51.600;5.718;2023-12-29T11:21:19;1.60;;;0.90;;
68438;SDS011;55421;51.600;5.718;2023-12-29T11:23:49;5.90;;;1.30;;
68438;SDS011;55421;51.600;5.718;2023-12-29T11:26:16;1.60;;;0.90;;
68438;SDS011;55421;51.600;5.718;2023-12-29T11:28:47;3.60;;;1.40;;
68438;SDS011;55421;51.600;5.718;2023-12-29T11:31:17;4.00;;;1.00;;
68438;SDS011;55421;51.600;5.718;2023-12-29T11:33:52;3.40;;;1.10;;
68438;SDS011;55421;51.600;5.718;2023-12-29T11:36:40;3.70;;;1.20;;
68438;SDS011;55421;51.600;5.718;2023-12-29T11:39:20;5.70;;;1.50;;
68438;SDS011;55421;51.600;5.718;2023-12-29T11:42:23;2.90;;;1.20;;
68438;SDS011;55421;51.600;5.718;2023-12-29T11:44:56;5.10;;;1.30;;
68438;SDS011;55421;51.600;5.718;2023-12-29T11:47:38;2.10;;;0.90;;
68438;SDS011;55421;51.600;5.718;2023-12-29T11:50:05;4.10;;;1.30;;
68438;SDS011;55421;51.600;5.718;2023-12-29T11:52:36;3.10;;;1.00;;
68438;SDS011;55421;51.600;5.718;2023-12-29T11:55:12;6.00;;;1.10;;
68438;SDS011;55421;51.600;5.718;2023-12-29T11:57:41;5.80;;;1.20;;
68438;SDS011;55421;51.600;5.718;2023-12-29T12:00:08;5.20;;;1.70;;
68438;SDS011;55421;51.600;5.718;2023-12-29T12:02:35;6.60;;;1.40;;
68438;SDS011;55421;51.600;5.718;2023-12-29T12:05:02;5.20;;;1.40;;
68438;SDS011;55421;51.600;5.718;2023-12-29T12:12:51;3.20;;;0.90;;
68438;SDS011;55421;51.600;5.718;2023-12-29T12:20:26;3.50;;;0.80;;
68438;SDS011;55421;51.600;5.718;2023-12-29T12:23:06;2.60;;;0.90;;
68438;SDS011;55421;51.600;5.718;2023-12-29T12:25:37;3.80;;;1.00;;
68438;SDS011;55421;51.600;5.718;2023-12-29T12:28:06;1.50;;;0.80;;
68438;SDS011;55421;51.600;5.718;2023-12-29T12:30:34;1.60;;;0.80;;
68438;SDS011;55421;51.600;5.718;2023-12-29T12:33:02;2.20;;;0.90;;
68438;SDS011;55421;51.600;5.718;2023-12-29T12:35:30;3.10;;;0.90;;
68438;SDS011;55421;51.600;5.718;2023-12-29T12:38:07;0.90;;;0.70;;
68438;SDS011;55421;51.600;5.718;2023-12-29T12:40:42;2.90;;;1.00;;
68438;SDS011;55421;51.600;5.718;2023-12-29T12:43:13;1.90;;;0.90;;
68438;SDS011;55421;51.600;5.718;2023-12-29T12:45:59;2.10;;;0.80;;
68438;SDS011;55421;51.600;5.718;2023-12-29T12:48:45;0.80;;;0.80;;
68438;SDS011;55421;51.600;5.718;2023-12-29T12:51:13;2.00;;;1.00;;
68438;SDS011;55421;51.600;5.718;2023-12-29T12:53:41;0.80;;;0.80;;
68438;SDS011;55421;51.600;5.718;2023-12-29T12:56:10;1.80;;;0.80;;
68438;SDS011;55421;51.600;5.718;2023-12-29T12:58:37;2.90;;;0.80;;
68438;SDS011;55421;51.600;5.718;2023-12-29T13:01:03;2.40;;;1.10;;
68438;SDS011;55421;51.600;5.718;2023-12-29T13:03:31;0.70;;;0.70;;
68438;SDS011;55421;51.600;5.718;2023-12-29T13:05:59;2.20;;;0.80;;
68438;SDS011;55421;51.600;5.718;2023-12-29T13:08:27;2.60;;;1.00;;
68438;SDS011;55421;51.600;5.718;2023-12-29T13:10:54;2.70;;;1.10;;
68438;SDS011;55421;51.600;5.718;2023-12-29T13:13:20;0.90;;;0.90;;
68438;SDS011;55421;51.600;5.718;2023-12-29T13:15:48;2.60;;;1.20;;
68438;SDS011;55421;51.600;5.718;2023-12-29T13:18:16;1.80;;;0.90;;
68438;SDS011;55421;51.600;5.718;2023-12-29T13:20:47;2.00;;;1.10;;
68438;SDS011;55421;51.600;5.718;2023-12-29T13:23:14;1.50;;;0.90;;
68438;SDS011;55421;51.600;5.718;2023-12-29T13:25:43;1.70;;;0.80;;
68438;SDS011;55421;51.600;5.718;2023-12-29T13:28:13;1.90;;;1.20;;
68438;SDS011;55421;51.600;5.718;2023-12-29T13:30:40;1.20;;;1.10;;
68438;SDS011;55421;51.600;5.718;2023-12-29T13:33:12;1.60;;;1.40;;
68438;SDS011;55421;51.600;5.718;2023-12-29T13:35:48;1.80;;;1.20;;
68438;SDS011;55421;51.600;5.718;2023-12-29T13:38:25;4.10;;;1.80;;
68438;SDS011;55421;51.600;5.718;2023-12-29T13:41:03;1.90;;;1.40;;
68438;SDS011;55421;51.600;5.718;2023-12-29T13:43:36;4.00;;;1.40;;
68438;SDS011;55421;51.600;5.718;2023-12-29T13:46:09;2.50;;;1.20;;
68438;SDS011;55421;51.600;5.718;2023-12-29T13:48:38;3.60;;;1.40;;
68438;SDS011;55421;51.600;5.718;2023-12-29T13:51:06;3.00;;;1.50;;
68438;SDS011;55421;51.600;5.718;2023-12-29T13:53:34;2.10;;;1.50;;
68438;SDS011;55421;51.600;5.718;2023-12-29T13:56:06;3.80;;;2.00;;
68438;SDS011;55421;51.600;5.718;2023-12-29T13:58:34;5.40;;;1.80;;
68438;SDS011;55421;51.600;5.718;2023-12-29T14:01:04;1.50;;;1.30;;
68438;SDS011;55421;51.600;5.718;2023-12-29T14:03:43;2.30;;;1.60;;
68438;SDS011;55421;51.600;5.718;2023-12-29T14:06:20;3.80;;;1.70;;
68438;SDS011;55421;51.600;5.718;2023-12-29T14:08:51;2.80;;;1.50;;
68438;SDS011;55421;51.600;5.718;2023-12-29T14:11:18;5.50;;;1.60;;
68438;SDS011;55421;51.600;5.718;2023-12-29T14:13:46;6.20;;;1.80;;
68438;SDS011;55421;51.600;5.718;2023-12-29T14:16:14;4.70;;;1.70;;
68438;SDS011;55421;51.600;5.718;2023-12-29T14:18:56;5.80;;;1.30;;
68438;SDS011;55421;51.600;5.718;2023-12-29T14:21:31;2.60;;;1.30;;
68438;SDS011;55421;51.600;5.718;2023-12-29T14:26:53;5.10;;;1.50;;
68438;SDS011;55421;51.600;5.718;2023-12-29T14:29:21;3.00;;;1.00;;
68438;SDS011;55421;51.600;5.718;2023-12-29T14:31:48;3.00;;;1.30;;
68438;SDS011;55421;51.600;5.718;2023-12-29T14:34:19;2.60;;;1.30;;
68438;SDS011;55421;51.600;5.718;2023-12-29T14:36:46;2.10;;;1.00;;
68438;SDS011;55421;51.600;5.718;2023-12-29T14:39:13;2.30;;;1.20;;
68438;SDS011;55421;51.600;5.718;2023-12-29T14:41:41;4.40;;;1.60;;
68438;SDS011;55421;51.600;5.718;2023-12-29T14:44:08;2.00;;;1.00;;
68438;SDS011;55421;51.600;5.718;2023-12-29T14:46:35;3.10;;;1.10;;
68438;SDS011;55421;51.600;5.718;2023-12-29T14:49:03;1.60;;;1.00;;
68438;SDS011;55421;51.600;5.718;2023-12-29T14:51:32;3.40;;;1.30;;
68438;SDS011;55421;51.600;5.718;2023-12-29T14:53:59;1.90;;;0.90;;
68438;SDS011;55421;51.600;5.718;2023-12-29T14:56:25;2.50;;;1.10;;
68438;SDS011;55421;51.600;5.718;2023-12-29T14:58:52;2.80;;;0.80;;
68438;SDS011;55421;51.600;5.718;2023-12-29T15:01:18;2.70;;;1.00;;
68438;SDS011;55421;51.600;5.718;2023-12-29T15:03:45;1.50;;;1.00;;
68438;SDS011;55421;51.600;5.718;2023-12-29T15:06:11;2.60;;;0.90;;
68438;SDS011;55421;51.600;5.718;2023-12-29T15:08:38;3.00;;;0.90;;
68438;SDS011;55421;51.600;5.718;2023-12-29T15:11:05;2.30;;;1.00;;
68438;SDS011;55421;51.600;5.718;2023-12-29T15:13:34;3.00;;;0.90;;
68438;SDS011;55421;51.600;5.718;2023-12-29T15:16:01;4.10;;;1.00;;